createdAt,value
2018-01-04T00:00:31.085Z,3.53
2018-01-04T00:02:58.753Z,5.73
2018-01-04T00:05:26.197Z,3.80
2018-01-04T00:07:53.640Z,1.77
2018-01-04T00:10:21.426Z,3.40
2018-01-04T00:12:48.868Z,2.53
2018-01-04T00:15:16.322Z,6.13
2018-01-04T00:17:44.113Z,3.20
2018-01-04T00:20:11.552Z,5.43
2018-01-04T00:22:38.992Z,4.20
2018-01-04T00:25:06.810Z,14.07
2018-01-04T00:27:34.254Z,5.53
2018-01-04T00:30:01.776Z,8.03
2018-01-04T00:32:29.502Z,7.90
2018-01-04T00:34:56.953Z,2.63
2018-01-04T00:37:24.397Z,2.03
2018-01-04T00:39:52.177Z,4.73
2018-01-04T00:42:19.618Z,3.27
2018-01-04T00:44:47.066Z,10.60
2018-01-04T00:47:15.797Z,4.67
2018-01-04T00:49:43.244Z,9.40
2018-01-04T00:52:10.692Z,4.47
2018-01-04T00:54:39.733Z,9.30
2018-01-04T00:57:07.244Z,4.07
2018-01-04T00:59:34.694Z,13.57
2018-01-04T01:02:02.705Z,5.37
2018-01-04T01:04:30.158Z,2.07
2018-01-04T01:06:57.603Z,6.73
2018-01-04T01:09:25.384Z,4.77
2018-01-04T01:11:52.825Z,6.30
2018-01-04T01:14:20.269Z,3.23
2018-01-04T01:16:48.245Z,5.60
2018-01-04T01:19:15.681Z,6.50
2018-01-04T01:21:43.120Z,3.93
2018-01-04T01:24:10.777Z,3.80
2018-01-04T01:26:38.221Z,10.90
2018-01-04T01:29:05.660Z,9.77
2018-01-04T01:31:33.446Z,4.87
2018-01-04T01:34:00.897Z,5.13
2018-01-04T01:36:28.344Z,5.37
2018-01-04T01:38:56.133Z,5.83
2018-01-04T01:41:23.573Z,6.23
2018-01-04T01:43:51.013Z,6.43
2018-01-04T01:46:18.821Z,8.17
2018-01-04T01:48:46.362Z,3.77
2018-01-04T01:51:13.804Z,2.47
2018-01-04T01:53:41.641Z,3.50
2018-01-04T01:56:12.440Z,7.93
2018-01-04T01:58:39.888Z,19.20
2018-01-04T02:01:07.881Z,5.43
2018-01-04T02:03:35.392Z,2.60
2018-01-04T02:06:02.824Z,7.53
2018-01-04T02:08:30.569Z,3.53
2018-01-04T02:10:58.010Z,6.10
2018-01-04T02:13:25.457Z,5.57
2018-01-04T02:15:53.275Z,10.20
2018-01-04T02:21:39.183Z,9.30
2018-01-04T02:24:18.356Z,6.23
2018-01-04T02:26:57.984Z,5.07
2018-01-04T02:29:37.120Z,6.70
2018-01-04T02:32:16.647Z,5.13
2018-01-04T02:34:55.714Z,6.40
2018-01-04T02:37:35.205Z,7.60
2018-01-04T02:40:14.464Z,7.60
2018-01-04T02:42:53.869Z,3.20
2018-01-04T02:45:47.950Z,8.37
2018-01-04T02:48:15.802Z,6.13
2018-01-04T02:50:43.255Z,4.20
2018-01-04T02:53:10.700Z,5.20
2018-01-04T02:55:38.421Z,2.23
2018-01-04T02:58:07.693Z,2.73
2018-01-04T03:00:35.141Z,7.47
2018-01-04T03:03:03.204Z,7.43
2018-01-04T03:05:30.652Z,8.53
2018-01-04T03:07:58.092Z,6.00
2018-01-04T03:10:25.952Z,6.30
2018-01-04T03:12:53.384Z,4.10
2018-01-04T03:15:20.825Z,3.60
2018-01-04T03:17:48.640Z,8.60
2018-01-04T03:20:16.081Z,4.70
2018-01-04T03:22:49.389Z,5.33
2018-01-04T03:25:22.488Z,2.50
2018-01-04T03:27:55.975Z,7.03
2018-01-04T03:30:29.030Z,3.23
2018-01-04T03:33:02.166Z,4.93
2018-01-04T03:35:35.089Z,4.00
2018-01-04T03:38:08.560Z,4.10
2018-01-04T03:40:41.529Z,2.00
2018-01-04T03:43:14.854Z,7.60
2018-01-04T03:45:47.935Z,9.00
2018-01-04T03:51:25.849Z,5.17
2018-01-04T03:53:59.053Z,4.17
2018-01-04T03:56:32.017Z,3.27
2018-01-04T03:59:06.381Z,4.93
2018-01-04T04:01:39.314Z,1.87
2018-01-04T04:04:12.554Z,1.90
2018-01-04T04:06:40.004Z,11.37
2018-01-04T04:09:07.455Z,4.47
2018-01-04T04:11:35.239Z,3.60
2018-01-04T04:14:02.685Z,2.53
2018-01-04T04:16:30.133Z,8.57
2018-01-04T04:18:57.908Z,8.27
2018-01-04T04:21:25.348Z,6.93
2018-01-04T04:23:52.796Z,17.90
2018-01-04T04:26:20.929Z,11.00
2018-01-04T04:28:48.373Z,6.20
2018-01-04T04:31:15.825Z,2.93
2018-01-04T04:33:43.914Z,5.23
2018-01-04T04:36:11.359Z,18.67
2018-01-04T04:38:38.809Z,5.87
2018-01-04T04:41:06.596Z,6.10
2018-01-04T04:43:34.038Z,3.00
2018-01-04T04:46:01.482Z,4.40
2018-01-04T04:48:29.305Z,7.37
2018-01-04T04:50:56.753Z,2.13
2018-01-04T04:53:24.189Z,8.40
2018-01-04T04:55:52.280Z,3.03
2018-01-04T04:58:19.720Z,5.80
2018-01-04T05:00:47.892Z,4.53
2018-01-04T05:03:15.464Z,3.10
2018-01-04T05:05:42.912Z,3.50
2018-01-04T05:08:10.356Z,4.50
2018-01-04T05:10:39.201Z,6.70
2018-01-04T05:13:06.658Z,4.20
2018-01-04T05:15:34.097Z,3.47
2018-01-04T05:18:01.813Z,4.97
2018-01-04T05:20:29.257Z,14.63
2018-01-04T05:22:56.693Z,3.80
2018-01-04T05:25:24.611Z,3.70
2018-01-04T05:27:52.024Z,10.40
2018-01-04T05:30:19.465Z,2.83
2018-01-04T05:32:47.253Z,6.40
2018-01-04T05:35:14.696Z,2.33
2018-01-04T05:37:42.142Z,8.97
2018-01-04T05:40:09.872Z,4.57
2018-01-04T05:42:38.033Z,2.60
2018-01-04T05:45:05.478Z,7.53
2018-01-04T05:47:33.238Z,5.10
2018-01-04T05:50:00.685Z,6.03
2018-01-04T05:52:28.126Z,3.10
2018-01-04T05:54:55.931Z,4.60
2018-01-04T05:57:23.377Z,6.10
2018-01-04T05:59:50.830Z,7.53
2018-01-04T06:02:20.457Z,4.20
2018-01-04T06:04:47.900Z,12.40
2018-01-04T06:07:15.340Z,4.63
2018-01-04T06:09:42.979Z,4.10
2018-01-04T06:12:10.416Z,7.33
2018-01-04T06:14:38.980Z,3.93
2018-01-04T06:17:06.752Z,9.10
2018-01-04T06:19:34.200Z,6.07
2018-01-04T06:22:01.643Z,4.10
2018-01-04T06:24:29.438Z,4.30
2018-01-04T06:26:56.887Z,4.87
2018-01-04T06:29:24.341Z,3.43
2018-01-04T06:31:52.139Z,10.73
2018-01-04T06:34:19.593Z,17.63
2018-01-04T06:36:47.034Z,4.50
2018-01-04T06:39:14.802Z,14.87
2018-01-04T06:41:42.257Z,8.60
2018-01-04T06:44:09.708Z,2.90
2018-01-04T06:53:21.177Z,6.97
2018-01-04T06:55:48.626Z,3.53
2018-01-04T06:58:16.079Z,6.50
2018-01-04T07:00:43.876Z,7.40
2018-01-04T07:03:12.008Z,5.13
2018-01-04T07:05:40.570Z,4.17
2018-01-04T07:08:08.396Z,19.57
2018-01-04T07:10:35.844Z,8.50
2018-01-04T07:13:03.302Z,5.63
2018-01-04T07:15:31.077Z,7.00
2018-01-04T07:17:58.518Z,4.40
2018-01-04T07:20:25.962Z,4.70
2018-01-04T07:22:53.813Z,8.35
2018-01-04T07:25:21.225Z,4.10
2018-01-04T07:27:48.671Z,5.73
2018-01-04T07:30:16.449Z,18.17
2018-01-04T07:32:43.893Z,8.73
2018-01-04T07:35:11.329Z,6.73
2018-01-04T07:37:39.141Z,6.13
2018-01-04T07:40:06.584Z,5.50
2018-01-04T07:42:34.025Z,3.47
2018-01-04T07:45:01.832Z,9.80
2018-01-04T07:47:29.273Z,5.80
2018-01-04T07:49:56.736Z,7.17
2018-01-04T07:52:24.817Z,7.07
2018-01-04T07:54:52.258Z,7.03
2018-01-04T07:57:19.701Z,5.57
2018-01-04T07:59:47.923Z,13.63
2018-01-04T08:02:15.443Z,7.57
2018-01-04T08:04:44.033Z,6.20
2018-01-04T08:07:11.761Z,20.60
2018-01-04T08:09:39.212Z,22.40
2018-01-04T08:12:06.665Z,14.13
2018-01-04T08:14:34.737Z,14.53
2018-01-04T08:17:02.183Z,13.27
2018-01-04T08:19:29.625Z,14.83
2018-01-04T08:21:57.270Z,10.27
2018-01-04T08:24:24.726Z,10.30
2018-01-04T08:26:52.178Z,5.20
2018-01-04T08:29:20.093Z,10.03
2018-01-04T08:31:47.540Z,6.23
2018-01-04T08:34:15.001Z,5.30
2018-01-04T08:36:42.806Z,5.90
2018-01-04T08:39:10.250Z,6.30
2018-01-04T08:41:37.709Z,20.30
2018-01-04T08:44:05.760Z,21.00
2018-01-04T08:46:33.218Z,5.13
2018-01-04T08:49:00.666Z,4.53
2018-01-04T08:51:28.473Z,11.20
2018-01-04T08:53:55.910Z,6.63
2018-01-04T08:56:23.344Z,7.77
2018-01-04T08:58:51.150Z,6.82
2018-01-04T09:01:18.605Z,10.70
2018-01-04T09:03:46.049Z,5.90
2018-01-04T09:06:14.466Z,3.70
2018-01-04T09:08:41.916Z,10.37
2018-01-04T09:11:09.377Z,4.40
2018-01-04T09:13:37.120Z,2.40
2018-01-04T09:16:04.677Z,5.53
2018-01-04T09:18:32.126Z,7.43
2018-01-04T09:20:59.804Z,8.03
2018-01-04T09:23:27.249Z,3.57
2018-01-04T09:25:54.694Z,2.70
2018-01-04T09:28:22.525Z,3.03
2018-01-04T09:30:49.968Z,2.83
2018-01-04T09:33:17.426Z,1.00
2018-01-04T09:35:45.205Z,1.30
2018-01-04T09:38:12.656Z,2.10
2018-01-04T09:40:40.101Z,1.30
2018-01-04T09:43:07.918Z,2.87
2018-01-04T09:45:35.426Z,1.57
2018-01-04T09:48:02.876Z,1.10
2018-01-04T09:50:30.577Z,8.17
2018-01-04T09:52:58.031Z,1.43
2018-01-04T09:55:25.484Z,0.83
2018-01-04T09:57:53.193Z,2.10
2018-01-04T10:00:20.632Z,0.70
2018-01-04T10:02:48.140Z,1.17
2018-01-04T10:05:15.947Z,0.80
2018-01-04T10:07:44.092Z,0.80
2018-01-04T10:10:11.533Z,1.10
2018-01-04T10:12:39.592Z,0.97
2018-01-04T10:15:07.030Z,0.60
2018-01-04T10:17:34.515Z,0.60
2018-01-04T10:20:02.860Z,0.60
2018-01-04T10:22:30.312Z,0.70
2018-01-04T10:24:57.748Z,0.63
2018-01-04T10:27:25.477Z,0.70
2018-01-04T10:29:52.924Z,2.20
2018-01-04T10:32:20.374Z,0.70
2018-01-04T10:34:48.232Z,1.50
2018-01-04T10:37:15.673Z,0.80
2018-01-04T10:39:43.123Z,0.70
2018-01-04T10:42:10.940Z,2.80
2018-01-04T10:44:38.680Z,2.93
2018-01-04T10:47:06.120Z,1.90
2018-01-04T10:49:33.920Z,1.83
2018-01-04T10:52:01.365Z,0.50
2018-01-04T10:54:28.808Z,0.90
2018-01-04T10:56:56.554Z,0.53
2018-01-04T10:59:24.002Z,1.07
2018-01-04T11:01:51.456Z,0.60
2018-01-04T11:04:19.997Z,0.90
2018-01-04T11:06:47.464Z,0.70
2018-01-04T11:09:15.840Z,1.43
2018-01-04T11:11:43.830Z,1.13
2018-01-04T11:14:11.276Z,2.00
2018-01-04T11:16:38.720Z,2.30
2018-01-04T11:19:06.593Z,2.60
2018-01-04T11:21:34.044Z,24.67
2018-01-04T11:24:01.499Z,1.53
2018-01-04T11:26:29.205Z,1.43
2018-01-04T11:28:56.653Z,1.90
2018-01-04T11:31:24.098Z,1.63
2018-01-04T11:33:51.888Z,1.03
2018-01-04T11:36:19.330Z,5.37
2018-01-04T11:38:46.780Z,7.07
2018-01-04T11:41:14.590Z,2.90
2018-01-04T11:43:42.066Z,1.63
2018-01-04T11:46:09.513Z,1.30
2018-01-04T11:48:37.260Z,7.13
2018-01-04T11:51:04.703Z,2.70
2018-01-04T11:53:32.152Z,1.90
2018-01-04T11:55:59.957Z,2.30
2018-01-04T11:58:27.413Z,1.40
2018-01-04T12:00:54.854Z,1.30
2018-01-04T12:03:22.645Z,4.57
2018-01-04T12:05:50.086Z,4.10
2018-01-04T12:08:17.530Z,1.10
2018-01-04T12:10:46.545Z,1.83
2018-01-04T12:13:13.998Z,2.23
2018-01-04T12:15:41.450Z,1.27
2018-01-04T12:18:09.238Z,2.30
2018-01-04T12:20:36.677Z,0.90
2018-01-04T12:23:04.122Z,1.53
2018-01-04T12:25:31.920Z,0.80
2018-01-04T12:27:59.362Z,0.90
2018-01-04T12:30:26.804Z,1.30
2018-01-04T12:32:54.621Z,0.80
2018-01-04T12:35:22.069Z,1.93
2018-01-04T12:37:49.508Z,7.03
2018-01-04T12:40:17.204Z,1.77
2018-01-04T12:42:44.653Z,1.80
2018-01-04T12:45:12.144Z,1.30
2018-01-04T12:47:39.987Z,1.00
2018-01-04T12:50:07.441Z,0.60
2018-01-04T12:52:34.898Z,2.20
2018-01-04T12:55:02.667Z,0.60
2018-01-04T12:57:30.109Z,2.70
2018-01-04T12:59:57.553Z,3.90
2018-01-04T13:02:25.357Z,0.70
2018-01-04T13:04:52.801Z,0.80
2018-01-04T13:07:20.240Z,1.30
2018-01-04T13:09:48.034Z,1.43
2018-01-04T13:12:15.881Z,1.83
2018-01-04T13:14:43.334Z,1.10
2018-01-04T13:17:10.909Z,0.83
2018-01-04T13:19:38.357Z,0.67
2018-01-04T13:22:05.806Z,1.03
2018-01-04T13:24:34.037Z,0.90
2018-01-04T13:27:01.478Z,0.80
2018-01-04T13:29:28.929Z,1.57
2018-01-04T13:31:56.729Z,0.90
2018-01-04T13:34:24.184Z,1.87
2018-01-04T13:36:51.644Z,1.00
2018-01-04T13:39:19.410Z,3.70
2018-01-04T13:41:46.865Z,1.27
2018-01-04T13:44:14.309Z,1.10
2018-01-04T13:46:42.097Z,1.47
2018-01-04T13:49:09.554Z,2.40
2018-01-04T13:51:37.006Z,1.10
2018-01-04T13:54:05.357Z,3.03
2018-01-04T13:56:32.802Z,3.80
2018-01-04T13:59:00.265Z,4.07
2018-01-04T14:01:28.097Z,1.30
2018-01-04T14:03:55.929Z,11.23
2018-01-04T14:06:23.380Z,10.93
2018-01-04T14:08:51.387Z,2.77
2018-01-04T14:11:18.875Z,1.73
2018-01-04T14:13:46.690Z,1.07
2018-01-04T14:16:14.378Z,1.23
2018-01-04T14:18:41.848Z,2.00
2018-01-04T14:21:09.310Z,4.33
2018-01-04T14:23:37.064Z,1.43
2018-01-04T14:26:04.510Z,1.50
2018-01-04T14:28:31.968Z,4.07
2018-01-04T14:30:59.752Z,2.03
2018-01-04T14:33:27.206Z,1.17
2018-01-04T14:35:54.667Z,1.23
2018-01-04T14:38:22.504Z,2.17
2018-01-04T14:40:49.973Z,1.50
2018-01-04T14:43:17.433Z,12.50
2018-01-04T14:45:45.139Z,1.40
2018-01-04T14:48:12.663Z,1.27
2018-01-04T14:50:40.118Z,2.97
2018-01-04T14:53:07.830Z,3.20
2018-01-04T14:55:35.285Z,1.60
2018-01-04T14:58:02.740Z,1.13
2018-01-04T15:00:30.509Z,1.73
2018-01-04T15:02:57.952Z,3.63
2018-01-04T15:05:25.400Z,2.30
2018-01-04T15:07:53.186Z,4.27
2018-01-04T15:10:20.628Z,5.43
2018-01-04T15:12:48.080Z,3.67
2018-01-04T15:15:16.808Z,3.70
2018-01-04T15:17:44.264Z,3.17
2018-01-04T15:20:11.710Z,1.53
2018-01-04T15:22:39.794Z,5.43
2018-01-04T15:25:07.250Z,2.13
2018-01-04T15:27:34.705Z,2.30
2018-01-04T15:30:02.554Z,1.20
2018-01-04T15:32:30.014Z,2.87
2018-01-04T15:34:57.486Z,6.03
2018-01-04T15:37:25.176Z,3.10
2018-01-04T15:39:52.633Z,2.90
2018-01-04T15:42:20.094Z,2.90
2018-01-04T15:44:47.864Z,4.97
2018-01-04T15:47:15.313Z,4.20
2018-01-04T15:49:42.761Z,4.20
2018-01-04T15:52:10.533Z,2.63
2018-01-04T15:54:38.700Z,2.83
2018-01-04T15:57:06.158Z,1.80
2018-01-04T15:59:33.877Z,5.43
2018-01-04T16:02:01.329Z,3.80
2018-01-04T16:04:28.769Z,1.80
2018-01-04T16:06:56.528Z,3.50
2018-01-04T16:09:23.998Z,4.80
2018-01-04T16:11:51.456Z,3.27
2018-01-04T16:14:19.229Z,5.17
2018-01-04T16:16:48.673Z,3.03
2018-01-04T16:19:16.132Z,3.20
2018-01-04T16:21:44.055Z,27.63
2018-01-04T16:24:11.500Z,4.10
2018-01-04T16:26:38.955Z,8.10
2018-01-04T16:29:06.747Z,5.70
2018-01-04T16:31:34.235Z,5.90
2018-01-04T16:34:01.685Z,16.43
2018-01-04T16:36:29.425Z,4.30
2018-01-04T16:38:56.876Z,4.73
2018-01-04T16:41:24.325Z,4.20
2018-01-04T16:43:52.122Z,10.53
2018-01-04T16:46:19.572Z,11.07
2018-01-04T16:48:47.012Z,7.30
2018-01-04T16:51:14.809Z,17.13
2018-01-04T16:53:42.274Z,5.13
2018-01-04T16:56:09.910Z,5.13
2018-01-04T16:58:37.793Z,5.10
2018-01-04T17:01:05.246Z,10.03
2018-01-04T17:03:32.694Z,8.43
2018-01-04T17:06:00.477Z,4.53
2018-01-04T17:08:27.926Z,5.90
2018-01-04T17:10:55.781Z,13.00
2018-01-04T17:13:23.793Z,6.77
2018-01-04T17:15:51.265Z,10.80
2018-01-04T17:18:19.702Z,12.57
2018-01-04T17:20:47.406Z,13.27
2018-01-04T17:23:14.860Z,7.40
2018-01-04T17:25:42.306Z,9.10
2018-01-04T17:28:10.705Z,11.07
2018-01-04T17:30:38.170Z,35.87
2018-01-04T17:33:05.644Z,24.80
2018-01-04T17:35:33.688Z,10.97
2018-01-04T17:38:01.151Z,5.87
2018-01-04T17:40:28.607Z,10.30
2018-01-04T17:42:56.394Z,15.50
2018-01-04T17:45:23.846Z,7.63
2018-01-04T17:47:51.917Z,11.27
2018-01-04T17:50:19.673Z,8.60
2018-01-04T17:52:47.124Z,8.03
2018-01-04T17:55:14.780Z,10.00
2018-01-04T17:57:42.679Z,13.10
2018-01-04T18:00:11.128Z,9.33
2018-01-04T18:02:38.586Z,12.43
2018-01-04T18:05:06.291Z,10.33
2018-01-04T18:07:33.742Z,8.70
2018-01-04T18:10:01.198Z,16.90
2018-01-04T18:12:29.273Z,15.73
2018-01-04T18:14:56.734Z,14.20
2018-01-04T18:17:24.193Z,17.77
2018-01-04T18:19:52.273Z,20.53
2018-01-04T18:22:19.729Z,14.43
2018-01-04T18:24:47.185Z,16.10
2018-01-04T18:27:14.952Z,17.73
2018-01-04T18:29:42.411Z,15.70
2018-01-04T18:32:09.926Z,18.93
2018-01-04T18:34:37.986Z,20.13
2018-01-04T18:37:05.443Z,19.60
2018-01-04T18:39:32.901Z,18.40
2018-01-04T18:42:00.618Z,20.90
2018-01-04T18:44:28.074Z,20.17
2018-01-04T18:46:55.541Z,21.67
2018-01-04T18:49:23.325Z,24.13
2018-01-04T18:51:50.792Z,24.13
2018-01-04T18:54:18.253Z,26.70
2018-01-04T18:56:46.012Z,24.13
2018-01-04T18:59:13.489Z,22.37
2018-01-04T19:01:40.949Z,22.43
2018-01-04T19:04:09.169Z,22.53
2018-01-04T19:06:36.626Z,23.20
2018-01-04T19:09:04.083Z,20.57
2018-01-04T19:11:31.693Z,24.67
2018-01-04T19:13:59.165Z,24.80
2018-01-04T19:16:26.647Z,24.13
2018-01-04T19:18:54.688Z,21.90
2018-01-04T19:21:22.308Z,19.90
2018-01-04T19:23:49.777Z,22.67
2018-01-04T19:26:17.751Z,23.33
2018-01-04T19:28:45.200Z,17.93
2018-01-04T19:31:12.655Z,19.13
2018-01-04T19:33:40.643Z,22.53
2018-01-04T19:36:08.129Z,18.90
2018-01-04T19:38:35.802Z,20.77
2018-01-04T19:41:03.666Z,22.37
2018-01-04T19:43:31.129Z,21.97
2018-01-04T19:45:58.706Z,18.67
2018-01-04T19:48:26.638Z,21.83
2018-01-04T19:50:54.110Z,21.00
2018-01-04T19:53:21.618Z,21.97
2018-01-04T19:55:50.264Z,23.90
2018-01-04T19:58:17.728Z,25.77
2018-01-04T20:00:45.206Z,22.57
2018-01-04T20:03:13.277Z,20.77
2018-01-04T20:05:40.756Z,21.13
2018-01-04T20:08:08.242Z,25.40
2018-01-04T20:10:35.970Z,27.97
2018-01-04T20:13:03.436Z,29.43
2018-01-04T20:15:30.902Z,30.03
2018-01-04T20:17:58.647Z,29.47
2018-01-04T20:20:26.105Z,31.40
2018-01-04T20:22:53.953Z,29.67
2018-01-04T20:25:22.045Z,29.20
2018-01-04T20:27:49.511Z,27.40
2018-01-04T20:30:16.972Z,29.37
2018-01-04T20:32:44.632Z,31.00
2018-01-04T20:35:12.097Z,26.37
2018-01-04T20:37:39.560Z,38.93
2018-01-04T20:40:07.634Z,29.87
2018-01-04T20:42:35.101Z,25.90
2018-01-04T20:45:02.554Z,31.83
2018-01-04T20:47:30.311Z,31.33
2018-01-04T20:49:57.866Z,34.47
2018-01-04T20:52:25.324Z,32.43
2018-01-04T20:54:53.004Z,34.10
2018-01-04T20:57:20.463Z,39.93
2018-01-04T20:59:47.930Z,29.87
2018-01-04T21:02:15.702Z,31.20
2018-01-04T21:04:43.175Z,24.37
2018-01-04T21:07:10.636Z,19.77
2018-01-04T21:09:38.384Z,19.80
2018-01-04T21:12:05.882Z,22.97
2018-01-04T21:14:33.365Z,31.17
2018-01-04T21:17:01.303Z,23.33
2018-01-04T21:19:28.796Z,22.40
2018-01-04T21:21:56.258Z,18.13
2018-01-04T21:24:24.482Z,21.67
2018-01-04T21:26:51.941Z,20.47
2018-01-04T21:29:19.405Z,21.47
2018-01-04T21:31:47.357Z,19.03
2018-01-04T21:34:14.822Z,18.50
2018-01-04T21:36:42.280Z,26.27
2018-01-04T21:39:10.401Z,28.40
2018-01-04T21:41:37.859Z,31.00
2018-01-04T21:44:05.665Z,28.70
2018-01-04T21:46:33.352Z,30.07
2018-01-04T21:49:00.818Z,39.03
2018-01-04T21:51:28.272Z,27.57
2018-01-04T21:53:56.042Z,33.53
2018-01-04T21:56:23.505Z,24.10
2018-01-04T21:58:51.003Z,22.13
2018-01-04T22:01:18.724Z,21.07
2018-01-04T22:03:46.190Z,19.50
2018-01-04T22:06:13.658Z,18.33
2018-01-04T22:08:41.811Z,15.70
2018-01-04T22:11:09.265Z,15.07
2018-01-04T22:13:36.717Z,9.93
2018-01-04T22:16:04.350Z,11.40
2018-01-04T22:18:31.808Z,11.27
2018-01-04T22:20:59.286Z,11.50
2018-01-04T22:23:27.086Z,10.47
2018-01-04T22:25:55.860Z,12.47
2018-01-04T22:28:23.319Z,14.00
2018-01-04T22:30:51.010Z,12.17
2018-01-04T22:33:18.474Z,12.23
2018-01-04T22:35:45.929Z,11.57
2018-01-04T22:38:15.135Z,12.90
2018-01-04T22:40:42.592Z,11.73
2018-01-04T22:43:10.050Z,9.10
2018-01-04T22:45:38.234Z,7.30
2018-01-04T22:48:05.743Z,6.60
2018-01-04T22:50:33.158Z,6.50
2018-01-04T22:53:00.906Z,5.07
2018-01-04T22:55:28.359Z,8.30
2018-01-04T22:57:55.815Z,5.53
2018-01-04T23:00:23.615Z,7.60
2018-01-04T23:02:51.061Z,9.83
2018-01-04T23:05:18.533Z,11.00
2018-01-04T23:07:46.245Z,18.40
2018-01-04T23:10:13.713Z,21.27
2018-01-04T23:12:41.170Z,11.00
2018-01-04T23:15:08.967Z,10.37
2018-01-04T23:17:36.418Z,10.43
2018-01-04T23:20:03.873Z,14.23
2018-01-04T23:22:31.663Z,21.37
2018-01-04T23:24:59.117Z,10.33
2018-01-04T23:27:26.965Z,13.20
2018-01-04T23:29:54.657Z,10.77
2018-01-04T23:32:22.115Z,8.10
2018-01-04T23:34:49.561Z,8.90
2018-01-04T23:37:17.344Z,7.50
2018-01-04T23:39:44.790Z,7.23
2018-01-04T23:42:12.245Z,8.97
2018-01-04T23:44:40.020Z,11.80
2018-01-04T23:47:07.470Z,8.80
2018-01-04T23:49:34.930Z,8.73
2018-01-04T23:52:02.711Z,8.60
2018-01-04T23:54:30.162Z,10.37
2018-01-04T23:56:57.627Z,10.90
2018-01-04T23:59:25.411Z,7.77
